Time;durP1;ratioP1;P1;durP2;ratioP2;P2;SDS_P1;SDS_P2;PMS_P1;PMS_P2;Temp;Humidity;BMP_temperature;BMP_pressure;BME280_temperature;BME280_humidity;BME280_pressure;Samples;Min_cycle;Max_cycle;Signal;HPM_P1;HPM_P2
2021/12/12 00:00:41;;;;;;;45.42;25.40;;;;;;;;;;4964589;28;20041;-70
2021/12/12 00:03:15;;;;;;;56.03;24.98;;;;;;;;;;4946957;28;20435;-69
2021/12/12 00:05:46;;;;;;;44.97;23.70;;;;;;;;;;4953466;28;20046;-70
2021/12/12 00:08:12;;;;;;;50.13;24.45;;;;;;;;;;4958892;28;20138;-70
2021/12/12 00:10:39;;;;;;;46.38;23.42;;;;;;;;;;4957034;28;20328;-70
2021/12/12 00:13:08;;;;;;;53.40;24.50;;;;;;;;;;4957070;28;20195;-70
2021/12/12 00:15:34;;;;;;;47.58;24.00;;;;;;;;;;4965173;28;20042;-70
2021/12/12 00:18:00;;;;;;;45.20;24.48;;;;;;;;;;4952354;28;20049;-70
2021/12/12 00:20:28;;;;;;;53.95;24.42;;;;;;;;;;4957564;28;20043;-70
2021/12/12 00:22:58;;;;;;;43.97;24.25;;;;;;;;;;4959398;28;20047;-70
2021/12/12 00:25:25;;;;;;;49.65;24.00;;;;;;;;;;4951832;28;20503;-69
2021/12/12 00:27:51;;;;;;;45.92;24.55;;;;;;;;;;4950008;28;20049;-70
2021/12/12 00:30:18;;;;;;;47.15;23.00;;;;;;;;;;4951513;28;20043;-70
2021/12/12 00:32:44;;;;;;;48.72;24.38;;;;;;;;;;4957316;28;20038;-69
2021/12/12 00:35:12;;;;;;;56.05;24.08;;;;;;;;;;4952131;28;20122;-70
2021/12/12 00:37:39;;;;;;;50.05;23.75;;;;;;;;;;4951896;28;20050;-70
2021/12/12 00:40:16;;;;;;;44.00;22.45;;;;;;;;;;4956549;28;20050;-70
2021/12/12 00:42:42;;;;;;;46.20;23.10;;;;;;;;;;4959033;28;20069;-70
2021/12/12 00:45:12;;;;;;;45.50;22.08;;;;;;;;;;4959596;28;20046;-70
2021/12/12 00:47:38;;;;;;;38.50;23.80;;;;;;;;;;4959206;28;20034;-70
2021/12/12 00:50:06;;;;;;;43.55;23.52;;;;;;;;;;4951469;28;20049;-70
2021/12/12 00:52:33;;;;;;;49.38;22.15;;;;;;;;;;4954647;28;20034;-70
2021/12/12 00:54:59;;;;;;;43.65;22.58;;;;;;;;;;4957517;28;20039;-70
2021/12/12 00:57:25;;;;;;;45.20;21.98;;;;;;;;;;4943919;28;20126;-70
2021/12/12 00:59:51;;;;;;;45.53;23.15;;;;;;;;;;4968087;28;20047;-69
2021/12/12 01:02:21;;;;;;;48.60;22.88;;;;;;;;;;4960193;28;20089;-70
2021/12/12 01:04:48;;;;;;;43.58;22.40;;;;;;;;;;4963178;28;20625;-69
2021/12/12 01:07:17;;;;;;;44.88;21.08;;;;;;;;;;4951573;28;20051;-70
2021/12/12 01:09:49;;;;;;;48.97;23.02;;;;;;;;;;4964008;28;20057;-70
2021/12/12 01:12:18;;;;;;;40.00;22.15;;;;;;;;;;4954772;28;20042;-69
2021/12/12 01:14:48;;;;;;;44.65;22.83;;;;;;;;;;4959502;28;20105;-69
2021/12/12 01:17:18;;;;;;;46.17;22.15;;;;;;;;;;4964551;28;20609;-69
2021/12/12 01:19:49;;;;;;;48.53;22.20;;;;;;;;;;4956320;28;20039;-70
2021/12/12 01:22:19;;;;;;;48.13;23.73;;;;;;;;;;4957514;28;20057;-70
2021/12/12 01:24:50;;;;;;;51.85;22.98;;;;;;;;;;4954997;28;20059;-69
2021/12/12 01:27:18;;;;;;;42.30;22.08;;;;;;;;;;4956073;28;20498;-69
2021/12/12 01:29:44;;;;;;;45.38;22.50;;;;;;;;;;4958875;28;20483;-70
2021/12/12 01:32:22;;;;;;;45.28;21.13;;;;;;;;;;4954755;28;20043;-69
2021/12/12 01:34:51;;;;;;;45.90;22.70;;;;;;;;;;4961968;28;20073;-68
2021/12/12 01:39:51;;;;;;;48.60;22.20;;;;;;;;;;4965164;28;20431;-69
2021/12/12 01:42:24;;;;;;;41.00;21.63;;;;;;;;;;4966166;28;20117;-69
2021/12/12 01:44:57;;;;;;;43.70;20.67;;;;;;;;;;4955937;28;20451;-69
2021/12/12 01:47:29;;;;;;;41.75;21.15;;;;;;;;;;4939677;28;20394;-69
2021/12/12 01:49:57;;;;;;;43.20;19.83;;;;;;;;;;4957358;28;20979;-69
2021/12/12 01:52:25;;;;;;;44.97;19.80;;;;;;;;;;4960777;28;20058;-69
2021/12/12 01:54:53;;;;;;;47.08;21.15;;;;;;;;;;4958713;28;21332;-69
2021/12/12 01:57:22;;;;;;;45.05;21.15;;;;;;;;;;4960902;28;20043;-69
2021/12/12 01:59:50;;;;;;;46.08;19.15;;;;;;;;;;4959209;28;20062;-69
2021/12/12 02:02:24;;;;;;;37.75;19.75;;;;;;;;;;4961631;28;20126;-69
2021/12/12 02:04:56;;;;;;;38.50;18.75;;;;;;;;;;4960983;28;20082;-69
2021/12/12 02:07:24;;;;;;;45.03;20.33;;;;;;;;;;4954498;28;20043;-69
2021/12/12 02:09:50;;;;;;;42.78;18.08;;;;;;;;;;4953407;28;20494;-69
2021/12/12 02:12:18;;;;;;;34.05;15.35;;;;;;;;;;4954810;28;20046;-69
2021/12/12 02:14:44;;;;;;;46.78;19.35;;;;;;;;;;4965745;28;20043;-70
2021/12/12 02:17:17;;;;;;;41.17;18.30;;;;;;;;;;4953530;28;20051;-70
2021/12/12 02:20:02;;;;;;;33.90;17.08;;;;;;;;;;4954210;28;20051;-69
2021/12/12 02:22:51;;;;;;;31.60;16.98;;;;;;;;;;4958179;28;20130;-69
2021/12/12 02:36:41;;;;;;;39.63;16.30;;;;;;;;;;4940826;28;20669;-69
2021/12/12 02:39:15;;;;;;;34.53;15.13;;;;;;;;;;4956495;28;20035;-69
2021/12/12 02:41:42;;;;;;;36.28;16.17;;;;;;;;;;4958255;28;20073;-70
2021/12/12 02:44:08;;;;;;;37.38;16.10;;;;;;;;;;4961905;28;20503;-70
2021/12/12 02:46:37;;;;;;;39.72;15.93;;;;;;;;;;4965626;28;20047;-70
2021/12/12 02:49:22;;;;;;;33.80;15.43;;;;;;;;;;4960210;28;20055;-70
2021/12/12 02:51:48;;;;;;;36.35;16.55;;;;;;;;;;4965407;28;20046;-71
2021/12/12 02:54:15;;;;;;;34.17;15.63;;;;;;;;;;4957792;28;20042;-70
2021/12/12 02:56:43;;;;;;;37.25;15.93;;;;;;;;;;4965170;28;20506;-70
2021/12/12 02:59:11;;;;;;;38.13;16.20;;;;;;;;;;4962400;28;20054;-70
2021/12/12 03:01:42;;;;;;;36.28;15.27;;;;;;;;;;4961469;28;20051;-69
2021/12/12 03:04:09;;;;;;;31.45;14.50;;;;;;;;;;4964549;28;20058;-70
2021/12/12 03:06:36;;;;;;;35.15;15.98;;;;;;;;;;4960693;28;20046;-70
2021/12/12 03:09:06;;;;;;;34.40;15.75;;;;;;;;;;4955947;28;20388;-70
2021/12/12 03:11:32;;;;;;;34.13;14.73;;;;;;;;;;4969315;28;20039;-69
2021/12/12 03:13:58;;;;;;;37.67;15.77;;;;;;;;;;4955237;28;20161;-69
2021/12/12 03:16:24;;;;;;;31.20;13.73;;;;;;;;;;4957091;28;20059;-69
2021/12/12 03:18:50;;;;;;;32.97;13.95;;;;;;;;;;4958683;28;20134;-71
2021/12/12 03:21:28;;;;;;;32.22;13.73;;;;;;;;;;4958390;28;20046;-70
2021/12/12 03:23:56;;;;;;;30.85;14.13;;;;;;;;;;4959807;28;20047;-71
2021/12/12 03:26:22;;;;;;;32.60;14.57;;;;;;;;;;4960978;28;20130;-71
2021/12/12 03:28:51;;;;;;;33.13;14.82;;;;;;;;;;4964141;28;20054;-70
2021/12/12 03:31:19;;;;;;;23.80;13.10;;;;;;;;;;4960152;28;20097;-70
2021/12/12 03:33:45;;;;;;;28.65;13.18;;;;;;;;;;4959476;28;20043;-71
2021/12/12 03:36:12;;;;;;;30.55;14.80;;;;;;;;;;4952688;28;20130;-70
2021/12/12 03:38:41;;;;;;;33.33;15.30;;;;;;;;;;4957855;28;20043;-71
2021/12/12 03:41:09;;;;;;;31.70;13.77;;;;;;;;;;4959008;28;20475;-70
2021/12/12 03:43:35;;;;;;;24.35;12.85;;;;;;;;;;4958213;28;20673;-70
2021/12/12 03:46:04;;;;;;;34.63;15.02;;;;;;;;;;4950066;28;20093;-71
2021/12/12 03:48:31;;;;;;;29.13;13.05;;;;;;;;;;4954610;28;20043;-71
2021/12/12 03:50:59;;;;;;;27.92;13.65;;;;;;;;;;4955326;28;20050;-71
2021/12/12 03:53:26;;;;;;;30.38;14.00;;;;;;;;;;4947924;28;20483;-71
2021/12/12 03:55:52;;;;;;;29.25;13.60;;;;;;;;;;4958890;28;20043;-71
2021/12/12 03:58:18;;;;;;;29.42;12.65;;;;;;;;;;4943307;28;20042;-71
2021/12/12 04:00:54;;;;;;;28.95;14.30;;;;;;;;;;4954657;28;20062;-71
2021/12/12 04:03:20;;;;;;;32.65;13.00;;;;;;;;;;4954260;28;20129;-71
2021/12/12 04:05:52;;;;;;;30.65;13.85;;;;;;;;;;4949654;28;20038;-71
2021/12/12 04:08:18;;;;;;;26.92;13.50;;;;;;;;;;4958435;28;21545;-72
2021/12/12 04:10:44;;;;;;;30.55;14.43;;;;;;;;;;4962614;28;20039;-71
2021/12/12 04:13:10;;;;;;;30.52;13.68;;;;;;;;;;4956404;28;20051;-71
2021/12/12 04:15:37;;;;;;;27.15;13.50;;;;;;;;;;4953082;28;20134;-71
2021/12/12 04:18:04;;;;;;;26.23;13.10;;;;;;;;;;4956065;28;20506;-71
2021/12/12 04:20:33;;;;;;;31.60;14.07;;;;;;;;;;4954628;28;20126;-71
2021/12/12 04:22:59;;;;;;;25.73;13.30;;;;;;;;;;4959193;28;20035;-71
2021/12/12 04:25:25;;;;;;;34.50;14.45;;;;;;;;;;4956081;28;20398;-69
2021/12/12 04:27:53;;;;;;;25.70;13.30;;;;;;;;;;4961363;28;20039;-71
2021/12/12 04:30:23;;;;;;;21.00;12.07;;;;;;;;;;4952967;28;20046;-71
2021/12/12 04:32:50;;;;;;;25.15;12.75;;;;;;;;;;4961530;28;20054;-72
2021/12/12 04:35:19;;;;;;;16.55;10.32;;;;;;;;;;4950779;28;20042;-73
2021/12/12 04:37:46;;;;;;;18.95;11.77;;;;;;;;;;4959537;28;20047;-74
2021/12/12 04:40:14;;;;;;;23.55;12.63;;;;;;;;;;4956536;28;20039;-75
2021/12/12 04:42:41;;;;;;;24.38;12.23;;;;;;;;;;4957339;28;20492;-80
2021/12/12 04:45:07;;;;;;;17.38;11.15;;;;;;;;;;4952500;28;20042;-73
2021/12/12 04:50:56;;;;;;;24.63;11.77;;;;;;;;;;4925992;29;20102;-75
2021/12/12 04:53:28;;;;;;;20.15;12.18;;;;;;;;;;4909734;29;20035;-75
2021/12/12 04:56:02;;;;;;;19.02;11.43;;;;;;;;;;4938466;28;20142;-75
2021/12/12 04:58:37;;;;;;;20.40;11.63;;;;;;;;;;4958140;28;20078;-76
2021/12/12 05:01:20;;;;;;;18.35;10.60;;;;;;;;;;4951749;28;20419;-76
2021/12/12 05:03:52;;;;;;;18.00;10.68;;;;;;;;;;4950974;28;20062;-76
2021/12/12 05:06:26;;;;;;;18.27;9.88;;;;;;;;;;4961171;28;20042;-77
2021/12/12 05:09:00;;;;;;;16.80;10.27;;;;;;;;;;4959472;28;20439;-76
2021/12/12 05:11:34;;;;;;;18.73;11.25;;;;;;;;;;4952341;28;20079;-76
2021/12/12 05:14:06;;;;;;;18.58;9.98;;;;;;;;;;4949439;28;20225;-76
2021/12/12 05:16:38;;;;;;;17.20;10.55;;;;;;;;;;4959684;28;20047;-76
2021/12/12 05:19:10;;;;;;;15.65;9.73;;;;;;;;;;4954996;28;20137;-78
2021/12/12 05:21:39;;;;;;;16.65;10.05;;;;;;;;;;4953906;28;20084;-75
2021/12/12 05:24:06;;;;;;;14.38;9.18;;;;;;;;;;4956171;28;20085;-77
2021/12/12 05:26:39;;;;;;;17.73;10.27;;;;;;;;;;4966720;28;20105;-79
2021/12/12 05:29:09;;;;;;;18.00;10.80;;;;;;;;;;4959769;28;20047;-81
2021/12/12 05:31:35;;;;;;;18.98;10.65;;;;;;;;;;4960786;28;20047;-82
2021/12/12 05:34:02;;;;;;;14.98;10.05;;;;;;;;;;4958511;28;20039;-82
2021/12/12 05:36:29;;;;;;;15.05;10.77;;;;;;;;;;4961203;28;20034;-82
2021/12/12 05:38:58;;;;;;;17.83;10.70;;;;;;;;;;4960496;28;20732;-82
2021/12/12 05:41:25;;;;;;;19.83;10.80;;;;;;;;;;4957682;28;20049;-82
2021/12/12 05:43:53;;;;;;;20.13;11.90;;;;;;;;;;4951095;28;20054;-82
2021/12/12 05:46:20;;;;;;;14.05;10.38;;;;;;;;;;4959889;28;20042;-81
2021/12/12 05:48:47;;;;;;;16.90;10.98;;;;;;;;;;4958099;28;20488;-81
2021/12/12 05:51:13;;;;;;;13.43;10.07;;;;;;;;;;4954192;28;20067;-81
2021/12/12 05:53:39;;;;;;;18.33;10.10;;;;;;;;;;4960472;28;20043;-80
2021/12/12 05:56:06;;;;;;;13.93;10.23;;;;;;;;;;4927707;28;20081;-80
2021/12/12 05:58:32;;;;;;;20.73;10.60;;;;;;;;;;4947110;28;20043;-80
2021/12/12 06:01:04;;;;;;;16.58;11.13;;;;;;;;;;4959264;28;20487;-80
2021/12/12 06:03:33;;;;;;;17.83;10.52;;;;;;;;;;4955692;28;20039;-79
2021/12/12 06:06:00;;;;;;;17.83;10.57;;;;;;;;;;4954246;28;20051;-79
2021/12/12 06:08:27;;;;;;;15.80;10.02;;;;;;;;;;4952731;28;20058;-80
2021/12/12 06:10:53;;;;;;;21.00;11.90;;;;;;;;;;4960300;28;20306;-79
2021/12/12 06:13:20;;;;;;;21.58;11.00;;;;;;;;;;4959649;28;20376;-79
2021/12/12 06:15:50;;;;;;;16.02;10.85;;;;;;;;;;4962853;28;20380;-78
2021/12/12 06:18:16;;;;;;;20.05;11.93;;;;;;;;;;4956790;28;20126;-78
2021/12/12 06:20:43;;;;;;;16.35;10.32;;;;;;;;;;4960296;28;20035;-79
2021/12/12 06:23:10;;;;;;;16.40;10.48;;;;;;;;;;4955205;28;20097;-78
2021/12/12 06:25:37;;;;;;;19.33;11.23;;;;;;;;;;4959022;28;20049;-78
2021/12/12 06:28:07;;;;;;;18.25;10.98;;;;;;;;;;4954664;28;20074;-78
2021/12/12 06:30:33;;;;;;;15.15;10.25;;;;;;;;;;4959379;28;20130;-75
2021/12/12 06:32:59;;;;;;;17.10;11.05;;;;;;;;;;4959348;28;20054;-75
2021/12/12 06:35:25;;;;;;;17.35;11.15;;;;;;;;;;4954808;28;20053;-75
2021/12/12 06:37:52;;;;;;;17.92;10.55;;;;;;;;;;4957680;28;20039;-75
2021/12/12 06:40:20;;;;;;;14.13;9.48;;;;;;;;;;4955293;28;20082;-75
2021/12/12 06:42:48;;;;;;;19.70;11.02;;;;;;;;;;4962177;28;20047;-77
2021/12/12 06:45:14;;;;;;;14.00;10.48;;;;;;;;;;4961207;28;20065;-78
2021/12/12 06:47:41;;;;;;;19.17;10.52;;;;;;;;;;4962045;28;20043;-77
2021/12/12 06:50:08;;;;;;;15.57;10.48;;;;;;;;;;4950341;28;20039;-77
2021/12/12 06:52:34;;;;;;;19.45;11.43;;;;;;;;;;4961801;28;20078;-76
2021/12/12 06:55:00;;;;;;;16.25;11.65;;;;;;;;;;4944780;28;20050;-77
2021/12/12 06:57:27;;;;;;;16.10;11.25;;;;;;;;;;4953055;28;20046;-76
2021/12/12 06:59:54;;;;;;;20.30;12.10;;;;;;;;;;4937241;28;20384;-76
2021/12/12 07:02:22;;;;;;;16.83;11.88;;;;;;;;;;4945067;28;20539;-76
2021/12/12 07:04:48;;;;;;;23.10;12.55;;;;;;;;;;4953045;28;20043;-76
2021/12/12 07:07:16;;;;;;;17.80;12.38;;;;;;;;;;4949205;28;20039;-75
2021/12/12 07:09:43;;;;;;;19.38;11.85;;;;;;;;;;4958078;28;20047;-74
2021/12/12 07:12:11;;;;;;;24.25;13.00;;;;;;;;;;4961001;28;20082;-73
2021/12/12 07:14:38;;;;;;;19.35;11.82;;;;;;;;;;4954540;28;20122;-74
2021/12/12 07:17:04;;;;;;;28.75;14.07;;;;;;;;;;4952211;28;20492;-76
2021/12/12 07:19:30;;;;;;;19.67;13.18;;;;;;;;;;4952960;28;20063;-76
2021/12/12 07:21:59;;;;;;;29.95;15.00;;;;;;;;;;4952399;28;20110;-74
2021/12/12 07:24:26;;;;;;;20.45;13.45;;;;;;;;;;4954515;28;20125;-75
2021/12/12 07:26:52;;;;;;;20.02;12.80;;;;;;;;;;4968035;28;20387;-76
2021/12/12 07:29:19;;;;;;;27.02;14.38;;;;;;;;;;4962918;28;20049;-78
2021/12/12 07:31:47;;;;;;;23.67;13.68;;;;;;;;;;4954498;28;20046;-78
2021/12/12 07:34:14;;;;;;;25.95;15.25;;;;;;;;;;4958528;28;21255;-78
2021/12/12 07:36:43;;;;;;;20.75;13.45;;;;;;;;;;4951586;28;20051;-78
2021/12/12 07:39:10;;;;;;;23.45;14.52;;;;;;;;;;4942087;28;20035;-78
2021/12/12 07:41:37;;;;;;;29.63;14.50;;;;;;;;;;4962130;28;20121;-78
2021/12/12 07:44:06;;;;;;;24.40;14.55;;;;;;;;;;4944300;28;20049;-77
2021/12/12 07:46:33;;;;;;;30.10;15.63;;;;;;;;;;4943484;28;20039;-78
2021/12/12 07:48:59;;;;;;;24.33;14.88;;;;;;;;;;4952644;28;20078;-78
2021/12/12 07:51:27;;;;;;;29.30;17.05;;;;;;;;;;4956580;28;20062;-78
2021/12/12 07:53:55;;;;;;;37.08;17.25;;;;;;;;;;4963598;28;20042;-78
2021/12/12 07:56:24;;;;;;;32.15;18.33;;;;;;;;;;4952472;28;20074;-78
2021/12/12 07:58:50;;;;;;;30.77;17.98;;;;;;;;;;4954177;28;20079;-78
2021/12/12 08:01:17;;;;;;;28.92;17.30;;;;;;;;;;4951628;28;20062;-78
2021/12/12 08:03:44;;;;;;;29.50;16.80;;;;;;;;;;4944290;28;20046;-78
2021/12/12 08:06:11;;;;;;;36.90;17.15;;;;;;;;;;4951966;28;20039;-76
2021/12/12 08:08:37;;;;;;;25.35;16.77;;;;;;;;;;4957503;28;20048;-75
2021/12/12 08:11:04;;;;;;;35.53;17.90;;;;;;;;;;4952330;28;20046;-76
2021/12/12 08:13:31;;;;;;;32.90;19.13;;;;;;;;;;4936055;28;20041;-75
2021/12/12 08:15:58;;;;;;;33.08;17.90;;;;;;;;;;4954527;28;20531;-76
2021/12/12 08:18:25;;;;;;;27.80;16.70;;;;;;;;;;4978500;28;20066;-76
2021/12/12 08:20:52;;;;;;;34.63;18.60;;;;;;;;;;4945910;28;20530;-76
2021/12/12 08:23:19;;;;;;;33.30;18.73;;;;;;;;;;4951373;28;20042;-75
2021/12/12 08:25:46;;;;;;;33.97;18.38;;;;;;;;;;4953888;28;20733;-75
2021/12/12 08:28:13;;;;;;;28.08;17.58;;;;;;;;;;4952695;28;20514;-75
2021/12/12 08:30:40;;;;;;;31.85;18.70;;;;;;;;;;4956429;28;20458;-76
2021/12/12 08:33:07;;;;;;;38.10;18.85;;;;;;;;;;4956070;28;20054;-75
2021/12/12 08:35:34;;;;;;;37.78;19.55;;;;;;;;;;4952088;28;20044;-74
2021/12/12 08:38:01;;;;;;;28.13;16.17;;;;;;;;;;4954534;28;20357;-73
2021/12/12 08:40:28;;;;;;;35.17;19.58;;;;;;;;;;4951085;28;20035;-72
2021/12/12 08:42:55;;;;;;;37.75;19.40;;;;;;;;;;4954534;28;20484;-71
2021/12/12 08:45:23;;;;;;;37.45;19.65;;;;;;;;;;4957351;28;20043;-72
2021/12/12 08:47:50;;;;;;;30.08;17.15;;;;;;;;;;4951847;28;20047;-71
2021/12/12 08:50:18;;;;;;;30.63;17.92;;;;;;;;;;4956385;28;20042;-73
2021/12/12 08:52:46;;;;;;;30.40;17.25;;;;;;;;;;4956831;28;20049;-74
2021/12/12 08:55:18;;;;;;;35.90;18.23;;;;;;;;;;4944592;28;20073;-76
2021/12/12 08:57:52;;;;;;;28.92;16.83;;;;;;;;;;4951206;28;21373;-76
2021/12/12 09:00:21;;;;;;;34.65;17.88;;;;;;;;;;4951763;28;20080;-76
2021/12/12 09:02:48;;;;;;;28.45;16.45;;;;;;;;;;4957399;28;20855;-76
2021/12/12 09:05:17;;;;;;;39.53;19.95;;;;;;;;;;4957679;28;20030;-76
2021/12/12 09:07:44;;;;;;;35.15;18.30;;;;;;;;;;4956189;28;20046;-78
2021/12/12 09:10:16;;;;;;;40.05;19.40;;;;;;;;;;4945170;28;20126;-77
2021/12/12 09:12:46;;;;;;;41.00;19.95;;;;;;;;;;4953368;28;20048;-77
2021/12/12 09:15:18;;;;;;;36.78;19.35;;;;;;;;;;4955695;28;20043;-77
2021/12/12 09:17:49;;;;;;;26.58;16.75;;;;;;;;;;4964618;28;20061;-77
2021/12/12 09:20:16;;;;;;;29.58;17.60;;;;;;;;;;4957236;28;20035;-77
2021/12/12 09:22:47;;;;;;;35.83;19.60;;;;;;;;;;4960724;28;20216;-77
2021/12/12 09:25:35;;;;;;;35.40;18.40;;;;;;;;;;4961136;28;20055;-77
2021/12/12 09:28:04;;;;;;;35.97;19.17;;;;;;;;;;4958906;28;20043;-77
2021/12/12 09:30:30;;;;;;;31.73;17.42;;;;;;;;;;4947723;28;20357;-77
2021/12/12 09:33:00;;;;;;;38.75;20.27;;;;;;;;;;4959537;28;20072;-78
2021/12/12 09:35:30;;;;;;;48.50;19.23;;;;;;;;;;4945433;28;20050;-78
2021/12/12 09:38:01;;;;;;;33.20;17.80;;;;;;;;;;4951297;28;20035;-78
2021/12/12 09:40:46;;;;;;;30.23;17.55;;;;;;;;;;4963426;28;20455;-79
2021/12/12 09:43:12;;;;;;;36.90;18.23;;;;;;;;;;4963321;28;20046;-79
2021/12/12 09:45:38;;;;;;;36.75;18.40;;;;;;;;;;4960248;28;20137;-78
2021/12/12 09:51:16;;;;;;;45.05;19.58;;;;;;;;;;4957600;28;20047;-77
2021/12/12 09:53:58;;;;;;;40.25;19.60;;;;;;;;;;4948434;28;20078;-77
2021/12/12 09:56:43;;;;;;;36.42;19.05;;;;;;;;;;4959465;28;20050;-78
2021/12/12 09:59:17;;;;;;;35.03;18.50;;;;;;;;;;4968993;28;20055;-78
2021/12/12 10:01:48;;;;;;;36.08;18.40;;;;;;;;;;4958731;28;20070;-78
2021/12/12 10:04:26;;;;;;;36.25;19.58;;;;;;;;;;4938306;28;20071;-78
2021/12/12 10:06:52;;;;;;;31.83;17.83;;;;;;;;;;4952186;28;20039;-78
2021/12/12 10:09:23;;;;;;;35.30;19.10;;;;;;;;;;4947808;28;20047;-79
2021/12/12 10:12:06;;;;;;;39.13;18.95;;;;;;;;;;4954416;28;20042;-78
2021/12/12 10:14:42;;;;;;;33.60;17.70;;;;;;;;;;4955929;28;20050;-79
2021/12/12 10:17:18;;;;;;;36.78;17.80;;;;;;;;;;4956492;28;20479;-77
2021/12/12 10:19:44;;;;;;;40.70;18.92;;;;;;;;;;4959488;28;20406;-77
2021/12/12 10:22:10;;;;;;;28.85;17.02;;;;;;;;;;4957347;28;20490;-78
2021/12/12 10:24:39;;;;;;;43.95;20.15;;;;;;;;;;4959389;28;20078;-77
2021/12/12 10:27:08;;;;;;;29.40;16.33;;;;;;;;;;4964466;28;20050;-76
2021/12/12 10:29:39;;;;;;;28.48;16.25;;;;;;;;;;4939115;28;20500;-73
2021/12/12 10:32:14;;;;;;;42.42;17.88;;;;;;;;;;4948515;28;20426;-74
2021/12/12 10:34:42;;;;;;;37.50;17.85;;;;;;;;;;4946326;28;20094;-76
2021/12/12 10:37:18;;;;;;;41.33;18.08;;;;;;;;;;4958036;28;20399;-73
2021/12/12 10:39:49;;;;;;;40.28;17.60;;;;;;;;;;4952593;28;20110;-73
2021/12/12 10:42:17;;;;;;;34.65;16.85;;;;;;;;;;4954580;28;20054;-73
2021/12/12 10:44:46;;;;;;;35.78;17.63;;;;;;;;;;4953786;28;20051;-71
2021/12/12 10:47:12;;;;;;;32.63;16.90;;;;;;;;;;4952125;28;20122;-71
2021/12/12 10:49:48;;;;;;;28.55;15.10;;;;;;;;;;4949906;28;20051;-72
2021/12/12 10:52:21;;;;;;;37.50;15.95;;;;;;;;;;4961294;28;20051;-71
2021/12/12 10:54:57;;;;;;;29.90;15.85;;;;;;;;;;4960689;28;20149;-71
2021/12/12 10:57:32;;;;;;;32.13;16.23;;;;;;;;;;4953326;28;20134;-69
2021/12/12 11:00:06;;;;;;;33.03;15.55;;;;;;;;;;4955191;28;20138;-72
2021/12/12 11:02:36;;;;;;;28.67;14.70;;;;;;;;;;4964295;28;20042;-71
2021/12/12 11:05:14;;;;;;;31.55;15.38;;;;;;;;;;4959775;28;20125;-66
2021/12/12 11:07:46;;;;;;;28.83;15.82;;;;;;;;;;4959091;28;20042;-71
2021/12/12 11:10:14;;;;;;;29.85;15.20;;;;;;;;;;4959699;28;20059;-72
2021/12/12 11:12:58;;;;;;;29.58;15.77;;;;;;;;;;4961570;28;20139;-72
2021/12/12 11:15:42;;;;;;;36.78;16.15;;;;;;;;;;4961201;28;20065;-72
2021/12/12 11:18:17;;;;;;;32.13;15.73;;;;;;;;;;4964296;28;20089;-72
2021/12/12 11:20:46;;;;;;;30.08;15.48;;;;;;;;;;4958746;28;20082;-73
2021/12/12 11:23:31;;;;;;;27.00;14.75;;;;;;;;;;4959192;28;20487;-72
2021/12/12 11:26:00;;;;;;;29.15;14.40;;;;;;;;;;4958963;28;20045;-72
2021/12/12 11:28:31;;;;;;;34.17;15.50;;;;;;;;;;4951119;28;20050;-74
2021/12/12 11:31:16;;;;;;;26.98;14.38;;;;;;;;;;4957198;28;20489;-72
2021/12/12 11:33:44;;;;;;;30.88;15.07;;;;;;;;;;4953639;28;20054;-72
2021/12/12 11:36:13;;;;;;;26.95;14.70;;;;;;;;;;4951305;28;20047;-73
2021/12/12 11:38:51;;;;;;;24.77;13.43;;;;;;;;;;4964590;28;20047;-73
2021/12/12 11:41:17;;;;;;;24.67;14.18;;;;;;;;;;4962495;28;20051;-74
2021/12/12 11:43:48;;;;;;;25.35;14.68;;;;;;;;;;4955562;28;20055;-73
2021/12/12 11:46:14;;;;;;;27.85;14.00;;;;;;;;;;4960442;28;20554;-73
2021/12/12 11:48:47;;;;;;;24.55;13.32;;;;;;;;;;4963823;28;20113;-73
2021/12/12 11:51:15;;;;;;;28.05;14.65;;;;;;;;;;4951368;28;20042;-73
2021/12/12 11:53:47;;;;;;;26.98;13.35;;;;;;;;;;4956632;28;20106;-73
2021/12/12 11:56:31;;;;;;;17.00;11.05;;;;;;;;;;4959048;28;20121;-73
2021/12/12 11:59:03;;;;;;;24.02;13.15;;;;;;;;;;4956627;28;20043;-76
2021/12/12 12:01:39;;;;;;;23.17;12.82;;;;;;;;;;4952996;28;20380;-76
2021/12/12 12:04:11;;;;;;;22.77;12.70;;;;;;;;;;4964615;28;20049;-71
2021/12/12 12:06:56;;;;;;;26.65;13.35;;;;;;;;;;4956977;28;20047;-78
2021/12/12 12:09:42;;;;;;;21.80;13.02;;;;;;;;;;4955837;28;20043;-73
2021/12/12 12:12:17;;;;;;;23.80;13.13;;;;;;;;;;4955685;28;20439;-78
2021/12/12 12:14:54;;;;;;;23.23;13.27;;;;;;;;;;4953776;28;20101;-76
2021/12/12 12:17:20;;;;;;;24.65;13.00;;;;;;;;;;4956979;28;20057;-77
2021/12/12 12:19:57;;;;;;;30.70;14.18;;;;;;;;;;4951953;28;20547;-77
2021/12/12 12:22:34;;;;;;;22.52;13.02;;;;;;;;;;4958739;28;20054;-77
2021/12/12 12:25:18;;;;;;;25.67;13.70;;;;;;;;;;4978851;28;20463;-77
2021/12/12 12:27:51;;;;;;;26.38;14.65;;;;;;;;;;4954857;28;20438;-77
2021/12/12 12:30:32;;;;;;;31.15;16.33;;;;;;;;;;4955446;28;20047;-77
2021/12/12 12:33:08;;;;;;;29.73;15.75;;;;;;;;;;4956518;28;20050;-78
2021/12/12 12:35:52;;;;;;;27.02;14.50;;;;;;;;;;4942495;28;20087;-77
2021/12/12 12:38:37;;;;;;;28.70;15.52;;;;;;;;;;4951593;28;20134;-77
2021/12/12 12:41:13;;;;;;;40.72;17.45;;;;;;;;;;4959373;28;20142;-76
2021/12/12 12:43:57;;;;;;;29.52;15.00;;;;;;;;;;4952224;28;20040;-76
2021/12/12 12:46:43;;;;;;;28.30;15.43;;;;;;;;;;4951989;28;20045;-78
2021/12/12 12:49:28;;;;;;;34.38;16.70;;;;;;;;;;4962901;28;20043;-77
2021/12/12 12:52:04;;;;;;;36.17;16.58;;;;;;;;;;4953362;28;20043;-77
2021/12/12 12:54:39;;;;;;;28.70;16.35;;;;;;;;;;4951808;28;20038;-78
2021/12/12 12:57:11;;;;;;;29.73;15.10;;;;;;;;;;4938846;28;21252;-78
2021/12/12 12:59:51;;;;;;;31.65;16.05;;;;;;;;;;4955472;28;20345;-77
2021/12/12 13:02:19;;;;;;;26.85;15.73;;;;;;;;;;4958727;28;20058;-77
2021/12/12 13:05:01;;;;;;;34.97;17.10;;;;;;;;;;4952014;28;20066;-77
2021/12/12 13:07:27;;;;;;;38.70;17.33;;;;;;;;;;4952223;28;20392;-78
2021/12/12 13:09:59;;;;;;;36.22;17.67;;;;;;;;;;4948855;28;20042;-78
2021/12/12 13:12:37;;;;;;;40.05;17.98;;;;;;;;;;4952944;28;20109;-78
2021/12/12 13:15:12;;;;;;;32.75;16.33;;;;;;;;;;4942033;28;20065;-77
2021/12/12 13:17:44;;;;;;;46.35;18.08;;;;;;;;;;4963683;28;20129;-78
2021/12/12 13:20:23;;;;;;;29.80;16.33;;;;;;;;;;4952046;28;20049;-78
2021/12/12 13:23:08;;;;;;;28.83;15.32;;;;;;;;;;4953488;28;20125;-69
2021/12/12 13:25:36;;;;;;;37.80;18.83;;;;;;;;;;4953899;28;20047;-77
2021/12/12 13:28:08;;;;;;;40.47;18.48;;;;;;;;;;4956004;28;20476;-77
2021/12/12 13:30:58;;;;;;;38.63;18.88;;;;;;;;;;4956317;28;20097;-77
2021/12/12 13:33:43;;;;;;;25.98;16.33;;;;;;;;;;4952382;28;20125;-77
2021/12/12 13:36:29;;;;;;;34.33;17.95;;;;;;;;;;4955685;28;20065;-78
2021/12/12 13:39:33;;;;;;;35.97;19.17;;;;;;;;;;4963718;28;20046;-77
2021/12/12 13:42:06;;;;;;;27.27;16.02;;;;;;;;;;4926498;29;20052;-77
2021/12/12 13:44:32;;;;;;;31.42;16.80;;;;;;;;;;4910525;29;20436;-77
2021/12/12 13:47:17;;;;;;;39.85;18.38;;;;;;;;;;4922476;28;20051;-78
2021/12/12 13:50:02;;;;;;;33.83;17.75;;;;;;;;;;4961760;28;20046;-77
2021/12/12 13:52:34;;;;;;;34.25;17.85;;;;;;;;;;4965226;28;20053;-78
2021/12/12 13:55:15;;;;;;;35.45;18.52;;;;;;;;;;4953219;28;20085;-78
2021/12/12 13:57:52;;;;;;;29.25;16.40;;;;;;;;;;4949897;28;20054;-79
2021/12/12 14:00:21;;;;;;;50.75;20.73;;;;;;;;;;4955593;28;20038;-78
2021/12/12 14:02:57;;;;;;;34.80;17.67;;;;;;;;;;4943558;28;20121;-78
2021/12/12 14:05:25;;;;;;;31.05;17.60;;;;;;;;;;4955997;28;20039;-78
2021/12/12 14:07:58;;;;;;;29.85;16.17;;;;;;;;;;4942379;28;20039;-78
2021/12/12 14:10:29;;;;;;;28.08;15.88;;;;;;;;;;4960080;28;20510;-78
2021/12/12 14:13:04;;;;;;;26.58;16.45;;;;;;;;;;4954830;28;20055;-79
2021/12/12 14:15:33;;;;;;;37.08;17.10;;;;;;;;;;4955010;28;20047;-77
2021/12/12 14:18:00;;;;;;;42.40;19.10;;;;;;;;;;4957590;28;20060;-78
2021/12/12 14:20:30;;;;;;;32.83;17.38;;;;;;;;;;4955615;28;20051;-78
2021/12/12 14:22:56;;;;;;;28.05;16.45;;;;;;;;;;4946759;28;20109;-77
2021/12/12 14:25:23;;;;;;;36.17;18.02;;;;;;;;;;4958140;28;20460;-78
2021/12/12 14:27:51;;;;;;;36.70;17.85;;;;;;;;;;4955258;28;20055;-77
2021/12/12 14:30:18;;;;;;;34.85;17.60;;;;;;;;;;4960530;28;20051;-77
2021/12/12 14:32:48;;;;;;;27.90;15.88;;;;;;;;;;4951020;28;20375;-78
2021/12/12 14:35:24;;;;;;;39.40;19.85;;;;;;;;;;4958302;28;20051;-77
2021/12/12 14:37:50;;;;;;;;;;;;;;;;;;4959732;28;20769;-77
2021/12/12 14:40:25;;;;;;;39.33;18.73;;;;;;;;;;4954754;28;19925;-77
2021/12/12 14:42:53;;;;;;;48.65;21.02;;;;;;;;;;4958063;28;20480;-77
2021/12/12 14:45:29;;;;;;;39.35;17.05;;;;;;;;;;4944235;28;20043;-77
2021/12/12 14:48:00;;;;;;;49.67;19.38;;;;;;;;;;4939200;28;20147;-76
2021/12/12 14:50:28;;;;;;;28.65;16.17;;;;;;;;;;4951886;28;20039;-77
2021/12/12 14:53:04;;;;;;;33.45;18.88;;;;;;;;;;4953012;28;20055;-77
2021/12/12 14:55:32;;;;;;;50.53;22.50;;;;;;;;;;4962507;28;20454;-76
2021/12/12 14:58:07;;;;;;;50.85;20.88;;;;;;;;;;4954935;28;20149;-77